sensor_id;sensor_type;location;lat;lon;timestamp;P1;durP1;ratioP1;P2;durP2;ratioP2
14584;SDS011;7379;51.506;11.876;2022-09-21T00:00:24;5.47;;;2.30;;
14584;SDS011;7379;51.506;11.876;2022-09-21T00:02:54;3.33;;;2.25;;
14584;SDS011;7379;51.506;11.876;2022-09-21T00:05:22;5.13;;;2.47;;
14584;SDS011;7379;51.506;11.876;2022-09-21T00:07:49;2.92;;;2.20;;
14584;SDS011;7379;51.506;11.876;2022-09-21T00:10:17;2.63;;;2.22;;
14584;SDS011;7379;51.506;11.876;2022-09-21T00:12:46;3.15;;;2.38;;
14584;SDS011;7379;51.506;11.876;2022-09-21T00:15:15;2.70;;;2.30;;
14584;SDS011;7379;51.506;11.876;2022-09-21T00:17:43;2.40;;;2.05;;
14584;SDS011;7379;51.506;11.876;2022-09-21T00:20:11;2.35;;;1.98;;
14584;SDS011;7379;51.506;11.876;2022-09-21T00:22:39;2.60;;;2.10;;
14584;SDS011;7379;51.506;11.876;2022-09-21T00:25:06;2.22;;;2.00;;
14584;SDS011;7379;51.506;11.876;2022-09-21T00:27:34;2.55;;;2.20;;
14584;SDS011;7379;51.506;11.876;2022-09-21T00:30:03;2.65;;;1.98;;
14584;SDS011;7379;51.506;11.876;2022-09-21T00:32:31;2.40;;;2.20;;
14584;SDS011;7379;51.506;11.876;2022-09-21T00:34:59;6.22;;;2.50;;
14584;SDS011;7379;51.506;11.876;2022-09-21T00:37:26;3.88;;;2.53;;
14584;SDS011;7379;51.506;11.876;2022-09-21T00:39:54;2.80;;;2.35;;
14584;SDS011;7379;51.506;11.876;2022-09-21T00:42:22;2.50;;;2.10;;
14584;SDS011;7379;51.506;11.876;2022-09-21T00:44:51;3.20;;;2.28;;
14584;SDS011;7379;51.506;11.876;2022-09-21T00:47:20;2.70;;;2.25;;
14584;SDS011;7379;51.506;11.876;2022-09-21T00:49:49;3.28;;;2.17;;
14584;SDS011;7379;51.506;11.876;2022-09-21T00:52:19;2.67;;;2.22;;
14584;SDS011;7379;51.506;11.876;2022-09-21T00:54:50;2.83;;;2.25;;
14584;SDS011;7379;51.506;11.876;2022-09-21T00:57:19;3.00;;;2.05;;
14584;SDS011;7379;51.506;11.876;2022-09-21T00:59:50;3.60;;;2.40;;
14584;SDS011;7379;51.506;11.876;2022-09-21T01:02:20;3.85;;;2.38;;
14584;SDS011;7379;51.506;11.876;2022-09-21T01:04:47;3.08;;;2.30;;
14584;SDS011;7379;51.506;11.876;2022-09-21T01:07:18;3.42;;;2.28;;
14584;SDS011;7379;51.506;11.876;2022-09-21T01:09:51;2.55;;;2.20;;
14584;SDS011;7379;51.506;11.876;2022-09-21T01:12:25;2.78;;;2.30;;
14584;SDS011;7379;51.506;11.876;2022-09-21T01:14:58;2.88;;;2.13;;
14584;SDS011;7379;51.506;11.876;2022-09-21T01:17:35;3.03;;;2.17;;
14584;SDS011;7379;51.506;11.876;2022-09-21T01:20:09;4.15;;;2.30;;
14584;SDS011;7379;51.506;11.876;2022-09-21T01:22:47;3.90;;;2.40;;
14584;SDS011;7379;51.506;11.876;2022-09-21T01:25:20;3.55;;;2.30;;
14584;SDS011;7379;51.506;11.876;2022-09-21T01:27:57;4.72;;;2.40;;
14584;SDS011;7379;51.506;11.876;2022-09-21T01:30:38;3.22;;;2.45;;
14584;SDS011;7379;51.506;11.876;2022-09-21T01:33:08;2.95;;;2.40;;
14584;SDS011;7379;51.506;11.876;2022-09-21T01:35:40;3.33;;;2.47;;
14584;SDS011;7379;51.506;11.876;2022-09-21T01:38:09;2.55;;;2.30;;
14584;SDS011;7379;51.506;11.876;2022-09-21T01:40:40;4.82;;;2.50;;
14584;SDS011;7379;51.506;11.876;2022-09-21T01:43:10;2.60;;;2.40;;
14584;SDS011;7379;51.506;11.876;2022-09-21T01:45:41;2.75;;;2.15;;
14584;SDS011;7379;51.506;11.876;2022-09-21T01:48:13;4.43;;;2.50;;
14584;SDS011;7379;51.506;11.876;2022-09-21T01:50:42;2.95;;;2.17;;
14584;SDS011;7379;51.506;11.876;2022-09-21T01:53:14;3.47;;;2.45;;
14584;SDS011;7379;51.506;11.876;2022-09-21T01:55:47;3.47;;;2.65;;
14584;SDS011;7379;51.506;11.876;2022-09-21T01:58:18;2.38;;;2.17;;
14584;SDS011;7379;51.506;11.876;2022-09-21T02:00:51;4.47;;;2.53;;
14584;SDS011;7379;51.506;11.876;2022-09-21T02:03:21;3.72;;;2.40;;
14584;SDS011;7379;51.506;11.876;2022-09-21T02:05:52;2.85;;;2.53;;
14584;SDS011;7379;51.506;11.876;2022-09-21T02:08:19;4.03;;;2.40;;
14584;SDS011;7379;51.506;11.876;2022-09-21T02:10:47;3.15;;;2.40;;
14584;SDS011;7379;51.506;11.876;2022-09-21T02:13:15;3.70;;;2.33;;
14584;SDS011;7379;51.506;11.876;2022-09-21T02:15:47;3.00;;;2.33;;
14584;SDS011;7379;51.506;11.876;2022-09-21T02:18:19;2.83;;;2.30;;
14584;SDS011;7379;51.506;11.876;2022-09-21T02:20:48;3.33;;;2.50;;
14584;SDS011;7379;51.506;11.876;2022-09-21T02:23:21;3.17;;;2.20;;
14584;SDS011;7379;51.506;11.876;2022-09-21T02:25:51;2.83;;;2.33;;
14584;SDS011;7379;51.506;11.876;2022-09-21T02:28:25;2.90;;;2.05;;
14584;SDS011;7379;51.506;11.876;2022-09-21T02:30:56;2.42;;;2.22;;
14584;SDS011;7379;51.506;11.876;2022-09-21T02:33:29;3.65;;;2.40;;
14584;SDS011;7379;51.506;11.876;2022-09-21T02:35:58;2.80;;;1.90;;
14584;SDS011;7379;51.506;11.876;2022-09-21T02:38:30;2.35;;;2.10;;
14584;SDS011;7379;51.506;11.876;2022-09-21T02:41:01;2.40;;;2.17;;
14584;SDS011;7379;51.506;11.876;2022-09-21T02:43:31;4.07;;;2.20;;
14584;SDS011;7379;51.506;11.876;2022-09-21T02:46:03;2.83;;;2.08;;
14584;SDS011;7379;51.506;11.876;2022-09-21T02:48:36;2.40;;;2.13;;
14584;SDS011;7379;51.506;11.876;2022-09-21T02:51:06;2.55;;;2.30;;
14584;SDS011;7379;51.506;11.876;2022-09-21T02:53:37;3.60;;;2.42;;
14584;SDS011;7379;51.506;11.876;2022-09-21T02:56:05;2.85;;;2.10;;
14584;SDS011;7379;51.506;11.876;2022-09-21T02:58:36;4.10;;;2.45;;
14584;SDS011;7379;51.506;11.876;2022-09-21T03:01:04;3.70;;;2.20;;
14584;SDS011;7379;51.506;11.876;2022-09-21T03:03:32;2.40;;;2.20;;
14584;SDS011;7379;51.506;11.876;2022-09-21T03:06:00;4.35;;;2.50;;
14584;SDS011;7379;51.506;11.876;2022-09-21T03:08:28;3.30;;;2.45;;
14584;SDS011;7379;51.506;11.876;2022-09-21T03:10:55;2.55;;;2.20;;
14584;SDS011;7379;51.506;11.876;2022-09-21T03:13:22;3.83;;;2.50;;
14584;SDS011;7379;51.506;11.876;2022-09-21T03:15:57;2.42;;;2.22;;
14584;SDS011;7379;51.506;11.876;2022-09-21T03:18:24;3.08;;;2.33;;
14584;SDS011;7379;51.506;11.876;2022-09-21T03:20:52;3.00;;;2.28;;
14584;SDS011;7379;51.506;11.876;2022-09-21T03:23:21;2.95;;;2.30;;
14584;SDS011;7379;51.506;11.876;2022-09-21T03:25:49;3.08;;;2.33;;
14584;SDS011;7379;51.506;11.876;2022-09-21T03:28:17;3.72;;;2.35;;
14584;SDS011;7379;51.506;11.876;2022-09-21T03:30:45;5.22;;;2.53;;
14584;SDS011;7379;51.506;11.876;2022-09-21T03:33:13;3.15;;;2.30;;
14584;SDS011;7379;51.506;11.876;2022-09-21T03:35:40;5.68;;;2.33;;
14584;SDS011;7379;51.506;11.876;2022-09-21T03:38:07;3.40;;;2.40;;
14584;SDS011;7379;51.506;11.876;2022-09-21T03:40:35;3.20;;;2.38;;
14584;SDS011;7379;51.506;11.876;2022-09-21T03:43:02;2.67;;;2.42;;
14584;SDS011;7379;51.506;11.876;2022-09-21T03:45:29;4.28;;;2.67;;
14584;SDS011;7379;51.506;11.876;2022-09-21T03:47:56;4.18;;;2.67;;
14584;SDS011;7379;51.506;11.876;2022-09-21T03:50:24;3.22;;;2.33;;
14584;SDS011;7379;51.506;11.876;2022-09-21T03:52:53;3.78;;;2.33;;
14584;SDS011;7379;51.506;11.876;2022-09-21T03:55:20;3.15;;;2.58;;
14584;SDS011;7379;51.506;11.876;2022-09-21T03:57:48;4.70;;;2.30;;
14584;SDS011;7379;51.506;11.876;2022-09-21T04:00:15;4.93;;;2.60;;
14584;SDS011;7379;51.506;11.876;2022-09-21T04:02:42;3.22;;;2.30;;
14584;SDS011;7379;51.506;11.876;2022-09-21T04:05:09;3.85;;;2.65;;
14584;SDS011;7379;51.506;11.876;2022-09-21T04:07:39;3.17;;;2.25;;
14584;SDS011;7379;51.506;11.876;2022-09-21T04:10:07;2.67;;;2.47;;
14584;SDS011;7379;51.506;11.876;2022-09-21T04:12:37;3.50;;;2.50;;
14584;SDS011;7379;51.506;11.876;2022-09-21T04:15:09;3.28;;;2.53;;
14584;SDS011;7379;51.506;11.876;2022-09-21T04:17:37;3.28;;;2.40;;
14584;SDS011;7379;51.506;11.876;2022-09-21T04:20:13;5.65;;;2.97;;
14584;SDS011;7379;51.506;11.876;2022-09-21T04:22:40;3.45;;;2.50;;
14584;SDS011;7379;51.506;11.876;2022-09-21T04:25:08;3.63;;;2.60;;
14584;SDS011;7379;51.506;11.876;2022-09-21T04:27:36;3.70;;;3.00;;
14584;SDS011;7379;51.506;11.876;2022-09-21T04:30:04;2.90;;;2.50;;
14584;SDS011;7379;51.506;11.876;2022-09-21T04:32:32;3.67;;;2.70;;
14584;SDS011;7379;51.506;11.876;2022-09-21T04:34:59;3.35;;;2.60;;
14584;SDS011;7379;51.506;11.876;2022-09-21T04:37:26;3.10;;;2.80;;
14584;SDS011;7379;51.506;11.876;2022-09-21T04:39:53;4.80;;;2.78;;
14584;SDS011;7379;51.506;11.876;2022-09-21T04:42:20;4.80;;;2.60;;
14584;SDS011;7379;51.506;11.876;2022-09-21T04:44:47;3.28;;;2.72;;
14584;SDS011;7379;51.506;11.876;2022-09-21T04:47:14;3.10;;;2.60;;
14584;SDS011;7379;51.506;11.876;2022-09-21T04:49:43;5.43;;;3.00;;
14584;SDS011;7379;51.506;11.876;2022-09-21T04:52:09;3.08;;;2.70;;
14584;SDS011;7379;51.506;11.876;2022-09-21T04:54:36;3.20;;;2.90;;
14584;SDS011;7379;51.506;11.876;2022-09-21T04:57:03;4.07;;;2.80;;
14584;SDS011;7379;51.506;11.876;2022-09-21T04:59:31;3.28;;;2.72;;
14584;SDS011;7379;51.506;11.876;2022-09-21T05:01:57;3.53;;;2.63;;
14584;SDS011;7379;51.506;11.876;2022-09-21T05:04:24;3.10;;;2.53;;
14584;SDS011;7379;51.506;11.876;2022-09-21T05:06:53;3.47;;;2.70;;
14584;SDS011;7379;51.506;11.876;2022-09-21T05:09:21;3.85;;;2.63;;
14584;SDS011;7379;51.506;11.876;2022-09-21T05:12:05;4.22;;;3.00;;
14584;SDS011;7379;51.506;11.876;2022-09-21T05:14:33;4.70;;;2.72;;
14584;SDS011;7379;51.506;11.876;2022-09-21T05:17:09;3.75;;;2.70;;
14584;SDS011;7379;51.506;11.876;2022-09-21T05:19:37;4.65;;;2.63;;
14584;SDS011;7379;51.506;11.876;2022-09-21T05:22:05;3.25;;;2.75;;
14584;SDS011;7379;51.506;11.876;2022-09-21T05:24:32;4.35;;;2.75;;
14584;SDS011;7379;51.506;11.876;2022-09-21T05:26:59;3.90;;;2.83;;
14584;SDS011;7379;51.506;11.876;2022-09-21T05:29:25;4.30;;;2.70;;
14584;SDS011;7379;51.506;11.876;2022-09-21T05:31:54;3.47;;;2.70;;
14584;SDS011;7379;51.506;11.876;2022-09-21T05:34:29;3.60;;;2.67;;
14584;SDS011;7379;51.506;11.876;2022-09-21T05:37:06;2.85;;;2.47;;
14584;SDS011;7379;51.506;11.876;2022-09-21T05:39:39;2.97;;;2.60;;
14584;SDS011;7379;51.506;11.876;2022-09-21T05:42:07;3.00;;;2.50;;
14584;SDS011;7379;51.506;11.876;2022-09-21T05:44:35;2.75;;;2.55;;
14584;SDS011;7379;51.506;11.876;2022-09-21T05:47:03;4.40;;;2.88;;
14584;SDS011;7379;51.506;11.876;2022-09-21T05:49:40;4.25;;;2.70;;
14584;SDS011;7379;51.506;11.876;2022-09-21T05:52:16;3.75;;;2.92;;
14584;SDS011;7379;51.506;11.876;2022-09-21T05:54:54;3.60;;;2.50;;
14584;SDS011;7379;51.506;11.876;2022-09-21T05:57:29;3.88;;;3.03;;
14584;SDS011;7379;51.506;11.876;2022-09-21T06:00:08;3.20;;;2.75;;
14584;SDS011;7379;51.506;11.876;2022-09-21T06:02:47;3.22;;;2.70;;
14584;SDS011;7379;51.506;11.876;2022-09-21T06:05:23;4.22;;;3.03;;
14584;SDS011;7379;51.506;11.876;2022-09-21T06:07:51;5.78;;;3.20;;
14584;SDS011;7379;51.506;11.876;2022-09-21T06:10:18;3.25;;;2.60;;
14584;SDS011;7379;51.506;11.876;2022-09-21T06:12:44;4.00;;;2.70;;
14584;SDS011;7379;51.506;11.876;2022-09-21T06:15:12;7.50;;;3.40;;
14584;SDS011;7379;51.506;11.876;2022-09-21T06:17:39;3.55;;;2.83;;
14584;SDS011;7379;51.506;11.876;2022-09-21T06:20:06;6.10;;;3.05;;
14584;SDS011;7379;51.506;11.876;2022-09-21T06:22:34;7.63;;;2.90;;
14584;SDS011;7379;51.506;11.876;2022-09-21T06:25:02;7.03;;;3.17;;
14584;SDS011;7379;51.506;11.876;2022-09-21T06:27:29;7.07;;;3.20;;
14584;SDS011;7379;51.506;11.876;2022-09-21T06:29:56;3.42;;;2.70;;
14584;SDS011;7379;51.506;11.876;2022-09-21T06:32:23;5.95;;;3.10;;
14584;SDS011;7379;51.506;11.876;2022-09-21T06:34:49;5.05;;;3.08;;
14584;SDS011;7379;51.506;11.876;2022-09-21T06:37:16;6.28;;;3.03;;
14584;SDS011;7379;51.506;11.876;2022-09-21T06:39:43;4.13;;;2.83;;
14584;SDS011;7379;51.506;11.876;2022-09-21T06:42:11;3.53;;;2.85;;
14584;SDS011;7379;51.506;11.876;2022-09-21T06:44:38;4.60;;;2.80;;
14584;SDS011;7379;51.506;11.876;2022-09-21T06:47:04;5.47;;;2.88;;
14584;SDS011;7379;51.506;11.876;2022-09-21T06:49:32;4.15;;;2.80;;
14584;SDS011;7379;51.506;11.876;2022-09-21T06:51:59;5.18;;;2.95;;
14584;SDS011;7379;51.506;11.876;2022-09-21T06:54:26;5.10;;;2.92;;
14584;SDS011;7379;51.506;11.876;2022-09-21T06:56:53;5.32;;;3.28;;
14584;SDS011;7379;51.506;11.876;2022-09-21T06:59:21;5.50;;;2.97;;
14584;SDS011;7379;51.506;11.876;2022-09-21T07:01:49;3.88;;;2.65;;
14584;SDS011;7379;51.506;11.876;2022-09-21T07:04:16;4.78;;;3.00;;
14584;SDS011;7379;51.506;11.876;2022-09-21T07:06:42;4.60;;;2.90;;
14584;SDS011;7379;51.506;11.876;2022-09-21T07:09:10;4.05;;;3.35;;
14584;SDS011;7379;51.506;11.876;2022-09-21T07:11:37;5.85;;;3.92;;
14584;SDS011;7379;51.506;11.876;2022-09-21T07:14:05;14.30;;;4.78;;
14584;SDS011;7379;51.506;11.876;2022-09-21T07:16:34;9.57;;;4.25;;
14584;SDS011;7379;51.506;11.876;2022-09-21T07:19:01;7.55;;;4.07;;
14584;SDS011;7379;51.506;11.876;2022-09-21T07:21:29;7.63;;;4.32;;
14584;SDS011;7379;51.506;11.876;2022-09-21T07:23:57;9.60;;;3.63;;
14584;SDS011;7379;51.506;11.876;2022-09-21T07:26:24;5.70;;;3.67;;
14584;SDS011;7379;51.506;11.876;2022-09-21T07:28:51;5.75;;;3.58;;
14584;SDS011;7379;51.506;11.876;2022-09-21T07:31:18;10.60;;;3.65;;
14584;SDS011;7379;51.506;11.876;2022-09-21T07:33:46;7.07;;;3.33;;
14584;SDS011;7379;51.506;11.876;2022-09-21T07:36:12;6.82;;;3.22;;
14584;SDS011;7379;51.506;11.876;2022-09-21T07:38:42;6.05;;;3.25;;
14584;SDS011;7379;51.506;11.876;2022-09-21T07:41:10;6.88;;;3.22;;
14584;SDS011;7379;51.506;11.876;2022-09-21T07:43:38;6.78;;;3.15;;
14584;SDS011;7379;51.506;11.876;2022-09-21T07:46:06;3.92;;;2.80;;
14584;SDS011;7379;51.506;11.876;2022-09-21T07:48:33;3.95;;;3.22;;
14584;SDS011;7379;51.506;11.876;2022-09-21T07:51:02;4.50;;;3.03;;
14584;SDS011;7379;51.506;11.876;2022-09-21T07:53:30;5.78;;;3.08;;
14584;SDS011;7379;51.506;11.876;2022-09-21T07:56:00;4.32;;;2.90;;
14584;SDS011;7379;51.506;11.876;2022-09-21T07:58:28;4.28;;;2.80;;
14584;SDS011;7379;51.506;11.876;2022-09-21T08:01:12;4.25;;;2.97;;
14584;SDS011;7379;51.506;11.876;2022-09-21T08:03:39;7.82;;;3.00;;
14584;SDS011;7379;51.506;11.876;2022-09-21T08:06:07;5.18;;;3.03;;
14584;SDS011;7379;51.506;11.876;2022-09-21T08:08:34;3.53;;;2.70;;
14584;SDS011;7379;51.506;11.876;2022-09-21T08:11:02;4.50;;;2.70;;
14584;SDS011;7379;51.506;11.876;2022-09-21T08:13:29;5.63;;;2.70;;
14584;SDS011;7379;51.506;11.876;2022-09-21T08:15:56;5.50;;;3.00;;
14584;SDS011;7379;51.506;11.876;2022-09-21T08:18:23;4.60;;;2.83;;
14584;SDS011;7379;51.506;11.876;2022-09-21T08:20:53;4.53;;;2.50;;
14584;SDS011;7379;51.506;11.876;2022-09-21T08:23:22;4.32;;;2.90;;
14584;SDS011;7379;51.506;11.876;2022-09-21T08:25:50;5.22;;;2.75;;
14584;SDS011;7379;51.506;11.876;2022-09-21T08:28:17;3.70;;;2.45;;
14584;SDS011;7379;51.506;11.876;2022-09-21T08:30:43;4.53;;;2.72;;
14584;SDS011;7379;51.506;11.876;2022-09-21T08:33:10;4.53;;;2.80;;
14584;SDS011;7379;51.506;11.876;2022-09-21T08:35:37;6.70;;;2.72;;
14584;SDS011;7379;51.506;11.876;2022-09-21T08:38:04;6.25;;;2.58;;
14584;SDS011;7379;51.506;11.876;2022-09-21T08:40:32;4.20;;;2.70;;
14584;SDS011;7379;51.506;11.876;2022-09-21T08:43:00;3.47;;;2.42;;
14584;SDS011;7379;51.506;11.876;2022-09-21T08:45:32;4.82;;;2.50;;
14584;SDS011;7379;51.506;11.876;2022-09-21T08:48:04;3.88;;;2.50;;
14584;SDS011;7379;51.506;11.876;2022-09-21T08:50:38;4.30;;;2.50;;
14584;SDS011;7379;51.506;11.876;2022-09-21T08:53:09;4.05;;;2.55;;
14584;SDS011;7379;51.506;11.876;2022-09-21T08:55:41;3.85;;;2.53;;
14584;SDS011;7379;51.506;11.876;2022-09-21T08:58:13;4.45;;;2.35;;
14584;SDS011;7379;51.506;11.876;2022-09-21T09:00:47;6.47;;;2.65;;
14584;SDS011;7379;51.506;11.876;2022-09-21T09:03:20;4.80;;;2.40;;
14584;SDS011;7379;51.506;11.876;2022-09-21T09:06:02;5.20;;;2.42;;
14584;SDS011;7379;51.506;11.876;2022-09-21T09:08:42;4.45;;;2.30;;
14584;SDS011;7379;51.506;11.876;2022-09-21T09:11:43;4.47;;;2.35;;
14584;SDS011;7379;51.506;11.876;2022-09-21T09:14:33;4.70;;;2.42;;
14584;SDS011;7379;51.506;11.876;2022-09-21T09:17:18;5.75;;;2.53;;
14584;SDS011;7379;51.506;11.876;2022-09-21T09:19:58;4.00;;;2.13;;
14584;SDS011;7379;51.506;11.876;2022-09-21T09:22:28;5.15;;;2.30;;
14584;SDS011;7379;51.506;11.876;2022-09-21T09:24:59;4.65;;;2.22;;
14584;SDS011;7379;51.506;11.876;2022-09-21T09:27:32;3.70;;;2.10;;
14584;SDS011;7379;51.506;11.876;2022-09-21T09:30:03;3.90;;;2.08;;
14584;SDS011;7379;51.506;11.876;2022-09-21T09:32:36;4.82;;;2.10;;
14584;SDS011;7379;51.506;11.876;2022-09-21T09:35:16;6.18;;;2.35;;
14584;SDS011;7379;51.506;11.876;2022-09-21T09:37:50;5.38;;;2.25;;
14584;SDS011;7379;51.506;11.876;2022-09-21T09:40:22;4.45;;;2.10;;
14584;SDS011;7379;51.506;11.876;2022-09-21T09:43:02;3.65;;;2.03;;
14584;SDS011;7379;51.506;11.876;2022-09-21T09:45:37;5.07;;;2.45;;
14584;SDS011;7379;51.506;11.876;2022-09-21T09:48:17;3.85;;;1.90;;
14584;SDS011;7379;51.506;11.876;2022-09-21T09:50:51;4.57;;;2.05;;
14584;SDS011;7379;51.506;11.876;2022-09-21T09:53:19;3.17;;;1.90;;
14584;SDS011;7379;51.506;11.876;2022-09-21T09:55:48;5.57;;;2.00;;
14584;SDS011;7379;51.506;11.876;2022-09-21T09:58:18;5.65;;;2.03;;
14584;SDS011;7379;51.506;11.876;2022-09-21T10:00:47;4.00;;;2.08;;
14584;SDS011;7379;51.506;11.876;2022-09-21T10:03:17;5.15;;;2.40;;
14584;SDS011;7379;51.506;11.876;2022-09-21T10:05:46;6.45;;;2.30;;
14584;SDS011;7379;51.506;11.876;2022-09-21T10:08:30;4.78;;;2.08;;
14584;SDS011;7379;51.506;11.876;2022-09-21T10:11:07;3.17;;;2.03;;
14584;SDS011;7379;51.506;11.876;2022-09-21T10:13:37;3.90;;;2.25;;
14584;SDS011;7379;51.506;11.876;2022-09-21T10:16:05;4.32;;;2.10;;
14584;SDS011;7379;51.506;11.876;2022-09-21T10:18:37;3.70;;;1.95;;
14584;SDS011;7379;51.506;11.876;2022-09-21T10:21:06;4.82;;;2.20;;
14584;SDS011;7379;51.506;11.876;2022-09-21T10:23:35;4.25;;;2.22;;
14584;SDS011;7379;51.506;11.876;2022-09-21T10:26:04;3.03;;;2.30;;
14584;SDS011;7379;51.506;11.876;2022-09-21T10:28:34;3.25;;;2.10;;
14584;SDS011;7379;51.506;11.876;2022-09-21T10:33:48;4.68;;;2.33;;
14584;SDS011;7379;51.506;11.876;2022-09-21T10:39:17;3.72;;;1.85;;
14584;SDS011;7379;51.506;11.876;2022-09-21T10:41:49;3.90;;;1.85;;
14584;SDS011;7379;51.506;11.876;2022-09-21T10:44:19;3.38;;;1.60;;
14584;SDS011;7379;51.506;11.876;2022-09-21T10:46:48;3.53;;;1.70;;
14584;SDS011;7379;51.506;11.876;2022-09-21T10:49:16;4.68;;;1.83;;
14584;SDS011;7379;51.506;11.876;2022-09-21T10:51:47;2.17;;;1.60;;
14584;SDS011;7379;51.506;11.876;2022-09-21T10:54:17;3.67;;;1.90;;
14584;SDS011;7379;51.506;11.876;2022-09-21T10:56:51;2.05;;;1.55;;
14584;SDS011;7379;51.506;11.876;2022-09-21T10:59:23;3.38;;;1.90;;
14584;SDS011;7379;51.506;11.876;2022-09-21T11:01:52;3.33;;;1.55;;
14584;SDS011;7379;51.506;11.876;2022-09-21T11:07:12;2.67;;;1.70;;
14584;SDS011;7379;51.506;11.876;2022-09-21T11:09:43;2.70;;;1.67;;
14584;SDS011;7379;51.506;11.876;2022-09-21T11:12:17;2.83;;;1.80;;
14584;SDS011;7379;51.506;11.876;2022-09-21T11:14:50;4.18;;;2.03;;
14584;SDS011;7379;51.506;11.876;2022-09-21T11:17:32;3.20;;;1.95;;
14584;SDS011;7379;51.506;11.876;2022-09-21T11:20:04;2.40;;;1.75;;
14584;SDS011;7379;51.506;11.876;2022-09-21T11:22:34;3.22;;;1.90;;
14584;SDS011;7379;51.506;11.876;2022-09-21T11:25:13;3.08;;;1.85;;
14584;SDS011;7379;51.506;11.876;2022-09-21T11:27:46;2.35;;;1.83;;
14584;SDS011;7379;51.506;11.876;2022-09-21T11:30:19;2.88;;;1.90;;
14584;SDS011;7379;51.506;11.876;2022-09-21T11:32:51;3.10;;;1.65;;
14584;SDS011;7379;51.506;11.876;2022-09-21T11:35:29;2.63;;;1.90;;
14584;SDS011;7379;51.506;11.876;2022-09-21T11:38:07;3.67;;;1.88;;
14584;SDS011;7379;51.506;11.876;2022-09-21T11:40:44;2.92;;;1.70;;
14584;SDS011;7379;51.506;11.876;2022-09-21T11:43:32;3.17;;;1.50;;
14584;SDS011;7379;51.506;11.876;2022-09-21T11:46:06;3.05;;;1.63;;
14584;SDS011;7379;51.506;11.876;2022-09-21T11:48:41;2.78;;;1.83;;
14584;SDS011;7379;51.506;11.876;2022-09-21T11:51:18;2.83;;;1.58;;
14584;SDS011;7379;51.506;11.876;2022-09-21T11:54:02;3.20;;;1.75;;
14584;SDS011;7379;51.506;11.876;2022-09-21T11:56:36;2.45;;;1.65;;
14584;SDS011;7379;51.506;11.876;2022-09-21T11:59:25;4.03;;;1.88;;
14584;SDS011;7379;51.506;11.876;2022-09-21T12:02:02;3.25;;;1.70;;
14584;SDS011;7379;51.506;11.876;2022-09-21T12:04:39;2.45;;;1.50;;
14584;SDS011;7379;51.506;11.876;2022-09-21T12:07:14;3.25;;;1.50;;
14584;SDS011;7379;51.506;11.876;2022-09-21T12:09:59;1.63;;;1.30;;
14584;SDS011;7379;51.506;11.876;2022-09-21T12:12:29;2.70;;;1.70;;
14584;SDS011;7379;51.506;11.876;2022-09-21T12:15:00;1.85;;;1.45;;
14584;SDS011;7379;51.506;11.876;2022-09-21T12:17:33;2.58;;;1.40;;
14584;SDS011;7379;51.506;11.876;2022-09-21T12:20:05;2.00;;;1.42;;
14584;SDS011;7379;51.506;11.876;2022-09-21T12:22:37;1.80;;;1.50;;
14584;SDS011;7379;51.506;11.876;2022-09-21T12:25:11;1.70;;;1.40;;
14584;SDS011;7379;51.506;11.876;2022-09-21T12:27:42;2.03;;;1.40;;
14584;SDS011;7379;51.506;11.876;2022-09-21T12:30:11;2.38;;;1.48;;
14584;SDS011;7379;51.506;11.876;2022-09-21T12:32:45;2.13;;;1.30;;
14584;SDS011;7379;51.506;11.876;2022-09-21T12:35:18;1.42;;;1.23;;
14584;SDS011;7379;51.506;11.876;2022-09-21T12:37:48;2.58;;;1.52;;
14584;SDS011;7379;51.506;11.876;2022-09-21T12:40:19;2.58;;;1.48;;
14584;SDS011;7379;51.506;11.876;2022-09-21T12:42:53;2.10;;;1.38;;
14584;SDS011;7379;51.506;11.876;2022-09-21T12:45:23;4.47;;;1.60;;
14584;SDS011;7379;51.506;11.876;2022-09-21T12:47:55;1.65;;;1.30;;
14584;SDS011;7379;51.506;11.876;2022-09-21T12:50:26;1.92;;;1.48;;
14584;SDS011;7379;51.506;11.876;2022-09-21T12:52:55;2.05;;;1.50;;
14584;SDS011;7379;51.506;11.876;2022-09-21T12:55:32;1.92;;;1.50;;
14584;SDS011;7379;51.506;11.876;2022-09-21T12:58:03;1.98;;;1.27;;
14584;SDS011;7379;51.506;11.876;2022-09-21T13:00:36;1.30;;;1.20;;
14584;SDS011;7379;51.506;11.876;2022-09-21T13:03:09;1.35;;;1.10;;
14584;SDS011;7379;51.506;11.876;2022-09-21T13:05:42;1.98;;;1.13;;
14584;SDS011;7379;51.506;11.876;2022-09-21T13:08:17;1.42;;;1.17;;
14584;SDS011;7379;51.506;11.876;2022-09-21T13:10:47;1.67;;;1.10;;
14584;SDS011;7379;51.506;11.876;2022-09-21T13:13:24;1.50;;;1.23;;
14584;SDS011;7379;51.506;11.876;2022-09-21T13:15:53;1.52;;;1.20;;
14584;SDS011;7379;51.506;11.876;2022-09-21T13:18:25;1.88;;;1.33;;
14584;SDS011;7379;51.506;11.876;2022-09-21T13:20:54;1.30;;;1.20;;
14584;SDS011;7379;51.506;11.876;2022-09-21T13:23:24;1.30;;;1.20;;
14584;SDS011;7379;51.506;11.876;2022-09-21T13:26:03;1.88;;;1.10;;
14584;SDS011;7379;51.506;11.876;2022-09-21T13:28:38;1.55;;;1.10;;
14584;SDS011;7379;51.506;11.876;2022-09-21T13:34:16;1.35;;;1.15;;
14584;SDS011;7379;51.506;11.876;2022-09-21T13:39:29;1.08;;;1.00;;
14584;SDS011;7379;51.506;11.876;2022-09-21T13:41:57;1.50;;;1.27;;
14584;SDS011;7379;51.506;11.876;2022-09-21T13:44:36;3.13;;;2.00;;
14584;SDS011;7379;51.506;11.876;2022-09-21T13:47:04;2.45;;;1.80;;
14584;SDS011;7379;51.506;11.876;2022-09-21T13:49:40;3.08;;;2.00;;
14584;SDS011;7379;51.506;11.876;2022-09-21T13:52:24;2.15;;;1.95;;
14584;SDS011;7379;51.506;11.876;2022-09-21T13:54:53;2.85;;;1.88;;
14584;SDS011;7379;51.506;11.876;2022-09-21T13:57:23;2.58;;;1.75;;
14584;SDS011;7379;51.506;11.876;2022-09-21T14:00:03;3.65;;;2.00;;
14584;SDS011;7379;51.506;11.876;2022-09-21T14:02:33;2.83;;;1.77;;
14584;SDS011;7379;51.506;11.876;2022-09-21T14:05:06;2.58;;;1.98;;
14584;SDS011;7379;51.506;11.876;2022-09-21T14:07:34;2.30;;;1.80;;
14584;SDS011;7379;51.506;11.876;2022-09-21T14:10:05;2.30;;;1.80;;
14584;SDS011;7379;51.506;11.876;2022-09-21T14:12:36;3.00;;;1.70;;
14584;SDS011;7379;51.506;11.876;2022-09-21T14:15:09;2.65;;;1.80;;
14584;SDS011;7379;51.506;11.876;2022-09-21T14:17:38;2.95;;;1.80;;
14584;SDS011;7379;51.506;11.876;2022-09-21T14:22:52;1.95;;;1.50;;
14584;SDS011;7379;51.506;11.876;2022-09-21T14:25:47;2.00;;;1.70;;
14584;SDS011;7379;51.506;11.876;2022-09-21T14:28:15;2.35;;;1.63;;
14584;SDS011;7379;51.506;11.876;2022-09-21T14:30:48;2.65;;;1.60;;
14584;SDS011;7379;51.506;11.876;2022-09-21T14:33:19;1.75;;;1.40;;
14584;SDS011;7379;51.506;11.876;2022-09-21T14:35:49;2.28;;;1.42;;
14584;SDS011;7379;51.506;11.876;2022-09-21T14:38:21;1.67;;;1.33;;
14584;SDS011;7379;51.506;11.876;2022-09-21T14:40:50;4.25;;;1.70;;
14584;SDS011;7379;51.506;11.876;2022-09-21T14:43:19;1.55;;;1.40;;
14584;SDS011;7379;51.506;11.876;2022-09-21T14:45:52;1.65;;;1.45;;
14584;SDS011;7379;51.506;11.876;2022-09-21T14:48:27;1.98;;;1.35;;
14584;SDS011;7379;51.506;11.876;2022-09-21T14:50:58;2.67;;;1.83;;
14584;SDS011;7379;51.506;11.876;2022-09-21T14:53:32;3.03;;;1.50;;
14584;SDS011;7379;51.506;11.876;2022-09-21T14:56:10;1.90;;;1.40;;
14584;SDS011;7379;51.506;11.876;2022-09-21T14:58:49;1.63;;;1.40;;
14584;SDS011;7379;51.506;11.876;2022-09-21T15:01:33;2.08;;;1.48;;
14584;SDS011;7379;51.506;11.876;2022-09-21T15:04:17;2.03;;;1.60;;
14584;SDS011;7379;51.506;11.876;2022-09-21T15:06:49;1.60;;;1.50;;
14584;SDS011;7379;51.506;11.876;2022-09-21T15:09:43;2.33;;;1.40;;
14584;SDS011;7379;51.506;11.876;2022-09-21T15:12:43;1.90;;;1.48;;
14584;SDS011;7379;51.506;11.876;2022-09-21T15:15:20;2.30;;;1.40;;
14584;SDS011;7379;51.506;11.876;2022-09-21T15:17:53;2.15;;;1.60;;
14584;SDS011;7379;51.506;11.876;2022-09-21T15:20:23;1.77;;;1.33;;
14584;SDS011;7379;51.506;11.876;2022-09-21T15:22:52;2.45;;;1.65;;
14584;SDS011;7379;51.506;11.876;2022-09-21T15:25:22;2.50;;;1.38;;
14584;SDS011;7379;51.506;11.876;2022-09-21T15:27:51;2.33;;;1.35;;